NY91 weather

Cloverdale Farm Airport
Peterboro, New York, United States

Public forecast

Using degrees Fahrenheit for public forecast. Weather courtesy of forecast.io.

Closest aviation weather report (METAR) to Cloverdale Farm Airport

Closest report is Syracuse Hancock International Airport, 19.1 nm (35.3 km) WNW. Retrieved 2019/10/15 17:54 UTC (7 minutes ago):

KSYR 151754Z VRB03KT 10SM FEW050 FEW250 15/01 A3010 RMK AO2 SLP190 T01500006 10156 20056 58020

Closest aviation forecast (TAF) to Cloverdale Farm Airport

Closest forecast is Syracuse Hancock International Airport, 19.1 nm (35.3 km) WNW. Retrieved 2019/10/15 18:24 UTC (0 seconds ago):

TAF KSYR 151723Z 1518/1618 13006KT P6SM SCT060 FM160700 12007KT P6SM FEW100 BKN200 WS020/19040KT FM161400 14014KT P6SM BKN080